sensor_id;sensor_type;location;lat;lon;timestamp;P1;durP1;ratioP1;P2;durP2;ratioP2
21168;SDS011;10742;51.816;8.662;2023-01-23T00:00:04;10.33;;;4.97;;
21168;SDS011;10742;51.816;8.662;2023-01-23T00:03:31;12.13;;;5.03;;
21168;SDS011;10742;51.816;8.662;2023-01-23T00:06:53;9.97;;;4.90;;
21168;SDS011;10742;51.816;8.662;2023-01-23T00:10:14;9.60;;;4.63;;
21168;SDS011;10742;51.816;8.662;2023-01-23T00:13:36;9.93;;;4.53;;
21168;SDS011;10742;51.816;8.662;2023-01-23T00:16:58;12.43;;;5.07;;
21168;SDS011;10742;51.816;8.662;2023-01-23T00:20:19;12.83;;;5.30;;
21168;SDS011;10742;51.816;8.662;2023-01-23T00:23:42;11.57;;;5.17;;
21168;SDS011;10742;51.816;8.662;2023-01-23T00:27:04;11.50;;;5.37;;
21168;SDS011;10742;51.816;8.662;2023-01-23T00:30:26;12.83;;;5.20;;
21168;SDS011;10742;51.816;8.662;2023-01-23T00:33:47;11.37;;;5.40;;
21168;SDS011;10742;51.816;8.662;2023-01-23T00:37:14;12.30;;;5.37;;
21168;SDS011;10742;51.816;8.662;2023-01-23T00:40:36;13.63;;;5.53;;
21168;SDS011;10742;51.816;8.662;2023-01-23T00:43:59;12.93;;;5.70;;
21168;SDS011;10742;51.816;8.662;2023-01-23T00:47:20;10.70;;;5.33;;
21168;SDS011;10742;51.816;8.662;2023-01-23T00:50:42;14.77;;;6.27;;
21168;SDS011;10742;51.816;8.662;2023-01-23T00:54:03;14.40;;;5.83;;
21168;SDS011;10742;51.816;8.662;2023-01-23T00:57:24;14.03;;;6.03;;
21168;SDS011;10742;51.816;8.662;2023-01-23T01:00:46;16.10;;;6.57;;
21168;SDS011;10742;51.816;8.662;2023-01-23T01:04:07;13.07;;;5.57;;
21168;SDS011;10742;51.816;8.662;2023-01-23T01:07:29;14.03;;;5.63;;
21168;SDS011;10742;51.816;8.662;2023-01-23T01:10:50;14.47;;;6.10;;
21168;SDS011;10742;51.816;8.662;2023-01-23T01:14:12;15.40;;;6.17;;
21168;SDS011;10742;51.816;8.662;2023-01-23T01:17:33;16.63;;;6.47;;
21168;SDS011;10742;51.816;8.662;2023-01-23T01:20:55;11.60;;;6.03;;
21168;SDS011;10742;51.816;8.662;2023-01-23T01:24:17;13.77;;;5.97;;
21168;SDS011;10742;51.816;8.662;2023-01-23T01:27:38;15.00;;;6.07;;
21168;SDS011;10742;51.816;8.662;2023-01-23T01:31:04;15.40;;;6.07;;
21168;SDS011;10742;51.816;8.662;2023-01-23T01:34:27;13.57;;;5.97;;
21168;SDS011;10742;51.816;8.662;2023-01-23T01:37:49;13.63;;;5.83;;
21168;SDS011;10742;51.816;8.662;2023-01-23T01:41:10;12.13;;;5.50;;
21168;SDS011;10742;51.816;8.662;2023-01-23T01:44:49;12.20;;;5.10;;
21168;SDS011;10742;51.816;8.662;2023-01-23T01:48:18;13.43;;;5.80;;
21168;SDS011;10742;51.816;8.662;2023-01-23T01:55:20;12.07;;;5.37;;
21168;SDS011;10742;51.816;8.662;2023-01-23T01:58:42;12.87;;;5.57;;
21168;SDS011;10742;51.816;8.662;2023-01-23T02:02:08;13.73;;;5.77;;
21168;SDS011;10742;51.816;8.662;2023-01-23T02:05:33;13.97;;;5.43;;
21168;SDS011;10742;51.816;8.662;2023-01-23T02:09:08;13.57;;;5.50;;
21168;SDS011;10742;51.816;8.662;2023-01-23T02:12:36;13.03;;;5.20;;
21168;SDS011;10742;51.816;8.662;2023-01-23T02:15:58;13.43;;;6.00;;
21168;SDS011;10742;51.816;8.662;2023-01-23T02:23:32;15.77;;;6.43;;
21168;SDS011;10742;51.816;8.662;2023-01-23T02:26:59;15.10;;;5.87;;
21168;SDS011;10742;51.816;8.662;2023-01-23T02:30:20;15.43;;;6.53;;
21168;SDS011;10742;51.816;8.662;2023-01-23T02:33:48;14.13;;;6.00;;
21168;SDS011;10742;51.816;8.662;2023-01-23T02:37:13;12.80;;;5.77;;
21168;SDS011;10742;51.816;8.662;2023-01-23T02:40:36;14.40;;;6.00;;
21168;SDS011;10742;51.816;8.662;2023-01-23T02:44:11;17.13;;;6.83;;
21168;SDS011;10742;51.816;8.662;2023-01-23T02:47:43;17.40;;;6.13;;
21168;SDS011;10742;51.816;8.662;2023-01-23T02:51:05;16.63;;;6.57;;
21168;SDS011;10742;51.816;8.662;2023-01-23T02:54:26;17.30;;;6.57;;
21168;SDS011;10742;51.816;8.662;2023-01-23T02:57:48;19.27;;;7.57;;
21168;SDS011;10742;51.816;8.662;2023-01-23T03:01:10;16.03;;;6.60;;
21168;SDS011;10742;51.816;8.662;2023-01-23T03:04:32;18.30;;;6.57;;
21168;SDS011;10742;51.816;8.662;2023-01-23T03:07:54;17.03;;;6.40;;
21168;SDS011;10742;51.816;8.662;2023-01-23T03:11:17;19.50;;;6.90;;
21168;SDS011;10742;51.816;8.662;2023-01-23T03:14:39;18.40;;;6.83;;
21168;SDS011;10742;51.816;8.662;2023-01-23T03:18:00;18.90;;;6.27;;
21168;SDS011;10742;51.816;8.662;2023-01-23T03:21:23;16.97;;;6.50;;
21168;SDS011;10742;51.816;8.662;2023-01-23T03:24:44;17.50;;;6.53;;
21168;SDS011;10742;51.816;8.662;2023-01-23T03:28:06;20.10;;;7.13;;
21168;SDS011;10742;51.816;8.662;2023-01-23T03:31:47;19.87;;;6.93;;
21168;SDS011;10742;51.816;8.662;2023-01-23T03:35:08;19.27;;;6.83;;
21168;SDS011;10742;51.816;8.662;2023-01-23T03:38:33;17.73;;;6.83;;
21168;SDS011;10742;51.816;8.662;2023-01-23T03:41:57;20.00;;;7.67;;
21168;SDS011;10742;51.816;8.662;2023-01-23T03:45:21;16.37;;;6.27;;
21168;SDS011;10742;51.816;8.662;2023-01-23T03:48:43;21.13;;;7.53;;
21168;SDS011;10742;51.816;8.662;2023-01-23T03:52:05;19.00;;;7.20;;
21168;SDS011;10742;51.816;8.662;2023-01-23T03:55:27;20.40;;;7.53;;
21168;SDS011;10742;51.816;8.662;2023-01-23T03:58:48;21.13;;;7.30;;
21168;SDS011;10742;51.816;8.662;2023-01-23T04:02:12;19.43;;;7.07;;
21168;SDS011;10742;51.816;8.662;2023-01-23T04:05:39;19.40;;;7.30;;
21168;SDS011;10742;51.816;8.662;2023-01-23T04:09:00;21.20;;;7.67;;
21168;SDS011;10742;51.816;8.662;2023-01-23T04:12:22;23.63;;;8.20;;
21168;SDS011;10742;51.816;8.662;2023-01-23T04:15:43;19.90;;;7.37;;
21168;SDS011;10742;51.816;8.662;2023-01-23T04:19:05;23.70;;;7.77;;
21168;SDS011;10742;51.816;8.662;2023-01-23T04:22:26;22.63;;;7.60;;
21168;SDS011;10742;51.816;8.662;2023-01-23T04:25:48;21.00;;;7.67;;
21168;SDS011;10742;51.816;8.662;2023-01-23T04:29:09;22.00;;;8.00;;
21168;SDS011;10742;51.816;8.662;2023-01-23T04:32:32;22.47;;;7.77;;
21168;SDS011;10742;51.816;8.662;2023-01-23T04:35:54;22.13;;;8.10;;
21168;SDS011;10742;51.816;8.662;2023-01-23T04:39:18;20.80;;;7.57;;
21168;SDS011;10742;51.816;8.662;2023-01-23T04:42:41;22.43;;;8.10;;
21168;SDS011;10742;51.816;8.662;2023-01-23T04:46:11;20.90;;;7.60;;
21168;SDS011;10742;51.816;8.662;2023-01-23T04:49:59;19.90;;;6.63;;
21168;SDS011;10742;51.816;8.662;2023-01-23T04:53:23;22.20;;;7.67;;
21168;SDS011;10742;51.816;8.662;2023-01-23T04:56:51;20.40;;;7.40;;
21168;SDS011;10742;51.816;8.662;2023-01-23T05:00:13;20.93;;;7.80;;
21168;SDS011;10742;51.816;8.662;2023-01-23T05:03:34;20.40;;;7.30;;
21168;SDS011;10742;51.816;8.662;2023-01-23T05:06:57;18.00;;;6.80;;
21168;SDS011;10742;51.816;8.662;2023-01-23T05:10:18;21.07;;;7.53;;
21168;SDS011;10742;51.816;8.662;2023-01-23T05:13:41;18.50;;;7.10;;
21168;SDS011;10742;51.816;8.662;2023-01-23T05:17:04;16.50;;;6.43;;
21168;SDS011;10742;51.816;8.662;2023-01-23T05:20:31;18.83;;;6.37;;
21168;SDS011;10742;51.816;8.662;2023-01-23T05:23:55;20.47;;;6.83;;
21168;SDS011;10742;51.816;8.662;2023-01-23T05:27:16;17.53;;;6.63;;
21168;SDS011;10742;51.816;8.662;2023-01-23T05:30:40;20.73;;;6.97;;
21168;SDS011;10742;51.816;8.662;2023-01-23T05:34:17;20.10;;;6.50;;
21168;SDS011;10742;51.816;8.662;2023-01-23T05:37:39;14.70;;;5.80;;
21168;SDS011;10742;51.816;8.662;2023-01-23T05:41:01;17.43;;;6.23;;
21168;SDS011;10742;51.816;8.662;2023-01-23T05:44:41;16.63;;;6.07;;
21168;SDS011;10742;51.816;8.662;2023-01-23T05:48:11;15.13;;;5.67;;
21168;SDS011;10742;51.816;8.662;2023-01-23T05:51:32;17.23;;;5.87;;
21168;SDS011;10742;51.816;8.662;2023-01-23T05:54:54;15.33;;;5.37;;
21168;SDS011;10742;51.816;8.662;2023-01-23T05:58:15;12.83;;;5.47;;
21168;SDS011;10742;51.816;8.662;2023-01-23T06:01:54;14.67;;;5.97;;
21168;SDS011;10742;51.816;8.662;2023-01-23T06:05:42;16.77;;;5.60;;
21168;SDS011;10742;51.816;8.662;2023-01-23T06:09:09;15.60;;;5.97;;
21168;SDS011;10742;51.816;8.662;2023-01-23T06:12:31;14.80;;;6.00;;
21168;SDS011;10742;51.816;8.662;2023-01-23T06:15:52;14.40;;;5.87;;
21168;SDS011;10742;51.816;8.662;2023-01-23T06:19:14;15.87;;;6.17;;
21168;SDS011;10742;51.816;8.662;2023-01-23T06:22:35;15.00;;;6.10;;
21168;SDS011;10742;51.816;8.662;2023-01-23T06:26:02;16.17;;;6.13;;
21168;SDS011;10742;51.816;8.662;2023-01-23T06:29:25;18.23;;;6.90;;
21168;SDS011;10742;51.816;8.662;2023-01-23T06:32:47;17.53;;;6.53;;
21168;SDS011;10742;51.816;8.662;2023-01-23T06:36:12;15.10;;;6.20;;
21168;SDS011;10742;51.816;8.662;2023-01-23T06:39:34;15.63;;;6.70;;
21168;SDS011;10742;51.816;8.662;2023-01-23T06:42:58;19.23;;;6.77;;
21168;SDS011;10742;51.816;8.662;2023-01-23T06:46:19;19.67;;;7.23;;
21168;SDS011;10742;51.816;8.662;2023-01-23T06:49:40;18.50;;;6.90;;
21168;SDS011;10742;51.816;8.662;2023-01-23T06:53:02;16.73;;;6.50;;
21168;SDS011;10742;51.816;8.662;2023-01-23T06:56:23;19.80;;;7.07;;
21168;SDS011;10742;51.816;8.662;2023-01-23T06:59:45;18.43;;;7.10;;
21168;SDS011;10742;51.816;8.662;2023-01-23T07:03:08;16.63;;;6.27;;
21168;SDS011;10742;51.816;8.662;2023-01-23T07:06:31;15.67;;;6.57;;
21168;SDS011;10742;51.816;8.662;2023-01-23T07:09:52;19.07;;;7.30;;
21168;SDS011;10742;51.816;8.662;2023-01-23T07:13:16;17.90;;;6.80;;
21168;SDS011;10742;51.816;8.662;2023-01-23T07:16:37;19.57;;;6.93;;
21168;SDS011;10742;51.816;8.662;2023-01-23T07:19:59;19.20;;;7.23;;
21168;SDS011;10742;51.816;8.662;2023-01-23T07:23:20;17.00;;;6.53;;
21168;SDS011;10742;51.816;8.662;2023-01-23T07:26:42;18.50;;;6.70;;
21168;SDS011;10742;51.816;8.662;2023-01-23T07:30:03;19.10;;;6.97;;
21168;SDS011;10742;51.816;8.662;2023-01-23T07:33:25;19.47;;;6.70;;
21168;SDS011;10742;51.816;8.662;2023-01-23T07:36:46;18.33;;;6.83;;
21168;SDS011;10742;51.816;8.662;2023-01-23T07:40:08;18.30;;;6.83;;
21168;SDS011;10742;51.816;8.662;2023-01-23T07:43:30;19.10;;;7.53;;
21168;SDS011;10742;51.816;8.662;2023-01-23T07:46:51;18.77;;;7.33;;
21168;SDS011;10742;51.816;8.662;2023-01-23T07:50:13;18.47;;;7.53;;
21168;SDS011;10742;51.816;8.662;2023-01-23T07:53:34;21.73;;;8.10;;
21168;SDS011;10742;51.816;8.662;2023-01-23T07:56:55;19.27;;;7.63;;
21168;SDS011;10742;51.816;8.662;2023-01-23T08:00:17;23.10;;;7.97;;
21168;SDS011;10742;51.816;8.662;2023-01-23T08:03:38;29.63;;;10.30;;
21168;SDS011;10742;51.816;8.662;2023-01-23T08:07:00;31.40;;;12.73;;
21168;SDS011;10742;51.816;8.662;2023-01-23T08:10:21;33.30;;;12.60;;
21168;SDS011;10742;51.816;8.662;2023-01-23T08:13:43;28.40;;;11.30;;
21168;SDS011;10742;51.816;8.662;2023-01-23T08:17:08;30.90;;;11.53;;
21168;SDS011;10742;51.816;8.662;2023-01-23T08:20:30;24.73;;;9.67;;
21168;SDS011;10742;51.816;8.662;2023-01-23T08:23:51;25.57;;;9.30;;
21168;SDS011;10742;51.816;8.662;2023-01-23T08:27:12;27.27;;;10.13;;
21168;SDS011;10742;51.816;8.662;2023-01-23T08:30:34;21.70;;;9.07;;
21168;SDS011;10742;51.816;8.662;2023-01-23T08:33:55;24.93;;;9.43;;
21168;SDS011;10742;51.816;8.662;2023-01-23T08:37:16;22.13;;;9.10;;
21168;SDS011;10742;51.816;8.662;2023-01-23T08:40:38;21.20;;;8.00;;
21168;SDS011;10742;51.816;8.662;2023-01-23T08:43:59;25.37;;;10.63;;
21168;SDS011;10742;51.816;8.662;2023-01-23T08:47:21;21.27;;;8.27;;
21168;SDS011;10742;51.816;8.662;2023-01-23T08:50:43;21.80;;;8.70;;
21168;SDS011;10742;51.816;8.662;2023-01-23T08:54:05;18.87;;;7.97;;
21168;SDS011;10742;51.816;8.662;2023-01-23T08:57:26;21.97;;;8.23;;
21168;SDS011;10742;51.816;8.662;2023-01-23T09:00:47;20.67;;;8.27;;
21168;SDS011;10742;51.816;8.662;2023-01-23T09:04:09;22.23;;;8.10;;
21168;SDS011;10742;51.816;8.662;2023-01-23T09:07:30;18.57;;;8.17;;
21168;SDS011;10742;51.816;8.662;2023-01-23T09:10:51;18.23;;;7.13;;
21168;SDS011;10742;51.816;8.662;2023-01-23T09:14:12;19.73;;;7.70;;
21168;SDS011;10742;51.816;8.662;2023-01-23T09:17:34;19.40;;;7.83;;
21168;SDS011;10742;51.816;8.662;2023-01-23T09:20:56;17.37;;;7.30;;
21168;SDS011;10742;51.816;8.662;2023-01-23T09:24:18;17.47;;;7.30;;
21168;SDS011;10742;51.816;8.662;2023-01-23T09:27:39;17.83;;;7.00;;
21168;SDS011;10742;51.816;8.662;2023-01-23T09:31:01;16.13;;;7.13;;
21168;SDS011;10742;51.816;8.662;2023-01-23T09:34:23;16.03;;;6.57;;
21168;SDS011;10742;51.816;8.662;2023-01-23T09:37:45;18.00;;;7.00;;
21168;SDS011;10742;51.816;8.662;2023-01-23T09:41:25;16.00;;;6.43;;
21168;SDS011;10742;51.816;8.662;2023-01-23T09:44:49;18.47;;;6.87;;
21168;SDS011;10742;51.816;8.662;2023-01-23T09:48:19;18.23;;;7.33;;
21168;SDS011;10742;51.816;8.662;2023-01-23T09:51:57;19.50;;;7.30;;
21168;SDS011;10742;51.816;8.662;2023-01-23T09:55:28;17.30;;;7.13;;
21168;SDS011;10742;51.816;8.662;2023-01-23T10:00:03;18.93;;;7.37;;
21168;SDS011;10742;51.816;8.662;2023-01-23T10:03:10;18.93;;;7.37;;
21168;SDS011;10742;51.816;8.662;2023-01-23T10:07:00;17.50;;;6.93;;
21168;SDS011;10742;51.816;8.662;2023-01-23T10:18:12;16.63;;;7.00;;
21168;SDS011;10742;51.816;8.662;2023-01-23T10:21:54;20.37;;;8.20;;
21168;SDS011;10742;51.816;8.662;2023-01-23T10:25:19;17.40;;;7.33;;
21168;SDS011;10742;51.816;8.662;2023-01-23T10:28:44;18.57;;;7.00;;
21168;SDS011;10742;51.816;8.662;2023-01-23T10:32:36;18.00;;;7.50;;
21168;SDS011;10742;51.816;8.662;2023-01-23T10:35:50;19.37;;;7.63;;
21168;SDS011;10742;51.816;8.662;2023-01-23T10:39:16;17.80;;;7.57;;
21168;SDS011;10742;51.816;8.662;2023-01-23T10:42:44;18.43;;;7.33;;
21168;SDS011;10742;51.816;8.662;2023-01-23T10:46:10;18.33;;;7.77;;
21168;SDS011;10742;51.816;8.662;2023-01-23T10:49:37;20.83;;;8.97;;
21168;SDS011;10742;51.816;8.662;2023-01-23T10:53:05;22.57;;;8.77;;
21168;SDS011;10742;51.816;8.662;2023-01-23T10:56:28;22.20;;;9.17;;
21168;SDS011;10742;51.816;8.662;2023-01-23T10:59:56;22.03;;;8.67;;
21168;SDS011;10742;51.816;8.662;2023-01-23T11:03:26;22.87;;;9.53;;
21168;SDS011;10742;51.816;8.662;2023-01-23T11:06:59;24.50;;;9.73;;
21168;SDS011;10742;51.816;8.662;2023-01-23T11:10:23;22.47;;;9.53;;
21168;SDS011;10742;51.816;8.662;2023-01-23T11:13:45;23.47;;;9.47;;
21168;SDS011;10742;51.816;8.662;2023-01-23T11:17:13;23.50;;;10.03;;
21168;SDS011;10742;51.816;8.662;2023-01-23T11:20:40;23.77;;;9.67;;
21168;SDS011;10742;51.816;8.662;2023-01-23T11:28:00;22.57;;;8.83;;
21168;SDS011;10742;51.816;8.662;2023-01-23T11:31:23;22.67;;;9.20;;
21168;SDS011;10742;51.816;8.662;2023-01-23T11:34:49;22.57;;;8.77;;
21168;SDS011;10742;51.816;8.662;2023-01-23T11:38:15;20.27;;;8.73;;
21168;SDS011;10742;51.816;8.662;2023-01-23T11:41:47;20.60;;;8.20;;
21168;SDS011;10742;51.816;8.662;2023-01-23T11:56:20;27.50;;;11.10;;
21168;SDS011;10742;51.816;8.662;2023-01-23T12:06:45;28.73;;;12.43;;
21168;SDS011;10742;51.816;8.662;2023-01-23T12:10:22;29.60;;;12.70;;
21168;SDS011;10742;51.816;8.662;2023-01-23T12:24:42;25.27;;;10.17;;
21168;SDS011;10742;51.816;8.662;2023-01-23T12:28:14;24.30;;;9.67;;
21168;SDS011;10742;51.816;8.662;2023-01-23T12:31:55;23.47;;;8.90;;
21168;SDS011;10742;51.816;8.662;2023-01-23T12:42:59;20.73;;;8.13;;
21168;SDS011;10742;51.816;8.662;2023-01-23T12:46:25;23.13;;;8.80;;
21168;SDS011;10742;51.816;8.662;2023-01-23T12:49:57;21.27;;;8.47;;
21168;SDS011;10742;51.816;8.662;2023-01-23T12:53:35;24.33;;;8.77;;
21168;SDS011;10742;51.816;8.662;2023-01-23T12:56:58;24.73;;;9.83;;
21168;SDS011;10742;51.816;8.662;2023-01-23T13:00:23;27.43;;;11.77;;
21168;SDS011;10742;51.816;8.662;2023-01-23T13:04:08;29.07;;;11.27;;
21168;SDS011;10742;51.816;8.662;2023-01-23T13:07:47;30.23;;;12.77;;
21168;SDS011;10742;51.816;8.662;2023-01-23T13:18:39;24.53;;;9.60;;
21168;SDS011;10742;51.816;8.662;2023-01-23T13:29:52;24.37;;;9.80;;
21168;SDS011;10742;51.816;8.662;2023-01-23T13:36:35;23.60;;;8.80;;
21168;SDS011;10742;51.816;8.662;2023-01-23T13:40:16;25.70;;;10.20;;
21168;SDS011;10742;51.816;8.662;2023-01-23T13:43:40;23.97;;;9.27;;
21168;SDS011;10742;51.816;8.662;2023-01-23T13:47:25;25.20;;;9.37;;
21168;SDS011;10742;51.816;8.662;2023-01-23T13:51:26;23.30;;;9.30;;
21168;SDS011;10742;51.816;8.662;2023-01-23T13:55:03;23.97;;;9.57;;
21168;SDS011;10742;51.816;8.662;2023-01-23T13:59:13;26.00;;;10.43;;
21168;SDS011;10742;51.816;8.662;2023-01-23T14:07:30;24.77;;;9.37;;
21168;SDS011;10742;51.816;8.662;2023-01-23T14:11:30;24.63;;;9.53;;
21168;SDS011;10742;51.816;8.662;2023-01-23T14:15:20;24.07;;;9.77;;
21168;SDS011;10742;51.816;8.662;2023-01-23T14:19:21;27.57;;;10.70;;
21168;SDS011;10742;51.816;8.662;2023-01-23T14:22:57;27.30;;;10.87;;
21168;SDS011;10742;51.816;8.662;2023-01-23T14:26:20;25.03;;;10.10;;
21168;SDS011;10742;51.816;8.662;2023-01-23T14:30:01;25.70;;;9.83;;
21168;SDS011;10742;51.816;8.662;2023-01-23T14:33:24;27.73;;;10.90;;
21168;SDS011;10742;51.816;8.662;2023-01-23T14:51:51;28.23;;;11.10;;
21168;SDS011;10742;51.816;8.662;2023-01-23T14:55:22;28.37;;;10.97;;
21168;SDS011;10742;51.816;8.662;2023-01-23T14:58:49;32.07;;;13.33;;
21168;SDS011;10742;51.816;8.662;2023-01-23T15:02:23;26.00;;;10.33;;
21168;SDS011;10742;51.816;8.662;2023-01-23T15:05:54;25.07;;;9.73;;
21168;SDS011;10742;51.816;8.662;2023-01-23T15:09:20;24.37;;;10.47;;
21168;SDS011;10742;51.816;8.662;2023-01-23T15:13:00;26.33;;;10.23;;
21168;SDS011;10742;51.816;8.662;2023-01-23T15:16:25;23.73;;;9.83;;
21168;SDS011;10742;51.816;8.662;2023-01-23T15:19:57;26.37;;;10.33;;
21168;SDS011;10742;51.816;8.662;2023-01-23T15:23:21;28.17;;;10.93;;
21168;SDS011;10742;51.816;8.662;2023-01-23T15:33:56;26.20;;;10.60;;
21168;SDS011;10742;51.816;8.662;2023-01-23T15:37:36;37.10;;;13.80;;
21168;SDS011;10742;51.816;8.662;2023-01-23T15:40:57;33.90;;;13.47;;
21168;SDS011;10742;51.816;8.662;2023-01-23T15:44:19;36.63;;;12.63;;
21168;SDS011;10742;51.816;8.662;2023-01-23T16:02:26;26.67;;;10.20;;
21168;SDS011;10742;51.816;8.662;2023-01-23T16:05:53;25.50;;;10.53;;
21168;SDS011;10742;51.816;8.662;2023-01-23T16:09:36;25.40;;;10.13;;
21168;SDS011;10742;51.816;8.662;2023-01-23T16:12:57;25.37;;;10.10;;
21168;SDS011;10742;51.816;8.662;2023-01-23T16:16:19;24.10;;;10.00;;
21168;SDS011;10742;51.816;8.662;2023-01-23T16:19:40;25.67;;;10.23;;
21168;SDS011;10742;51.816;8.662;2023-01-23T16:23:03;25.40;;;9.83;;
21168;SDS011;10742;51.816;8.662;2023-01-23T16:26:47;25.47;;;10.87;;
21168;SDS011;10742;51.816;8.662;2023-01-23T16:30:14;25.77;;;10.13;;
21168;SDS011;10742;51.816;8.662;2023-01-23T16:33:40;25.57;;;10.37;;
21168;SDS011;10742;51.816;8.662;2023-01-23T16:37:01;24.47;;;9.90;;
21168;SDS011;10742;51.816;8.662;2023-01-23T16:44:13;29.50;;;12.33;;
21168;SDS011;10742;51.816;8.662;2023-01-23T16:56:38;29.13;;;10.80;;
21168;SDS011;10742;51.816;8.662;2023-01-23T17:00:02;27.67;;;11.03;;
21168;SDS011;10742;51.816;8.662;2023-01-23T17:03:25;28.13;;;10.73;;
21168;SDS011;10742;51.816;8.662;2023-01-23T17:06:49;29.60;;;11.23;;
21168;SDS011;10742;51.816;8.662;2023-01-23T17:10:18;27.07;;;10.17;;
21168;SDS011;10742;51.816;8.662;2023-01-23T17:13:41;28.70;;;11.37;;
21168;SDS011;10742;51.816;8.662;2023-01-23T17:17:03;29.60;;;10.90;;
21168;SDS011;10742;51.816;8.662;2023-01-23T17:20:27;27.53;;;10.73;;
21168;SDS011;10742;51.816;8.662;2023-01-23T17:23:49;27.47;;;11.37;;
21168;SDS011;10742;51.816;8.662;2023-01-23T17:27:10;33.80;;;13.87;;
21168;SDS011;10742;51.816;8.662;2023-01-23T17:30:32;30.83;;;11.37;;
21168;SDS011;10742;51.816;8.662;2023-01-23T17:33:53;28.20;;;11.80;;
21168;SDS011;10742;51.816;8.662;2023-01-23T17:37:19;27.00;;;11.80;;
21168;SDS011;10742;51.816;8.662;2023-01-23T17:40:41;28.40;;;11.63;;
21168;SDS011;10742;51.816;8.662;2023-01-23T17:44:03;27.47;;;10.77;;
21168;SDS011;10742;51.816;8.662;2023-01-23T17:47:24;27.07;;;10.47;;
21168;SDS011;10742;51.816;8.662;2023-01-23T17:50:46;24.43;;;10.13;;
21168;SDS011;10742;51.816;8.662;2023-01-23T17:54:09;25.77;;;10.13;;
21168;SDS011;10742;51.816;8.662;2023-01-23T17:57:38;25.80;;;10.20;;
21168;SDS011;10742;51.816;8.662;2023-01-23T18:01:00;27.67;;;10.80;;
21168;SDS011;10742;51.816;8.662;2023-01-23T18:04:21;30.13;;;11.20;;
21168;SDS011;10742;51.816;8.662;2023-01-23T18:07:42;27.60;;;11.27;;
21168;SDS011;10742;51.816;8.662;2023-01-23T18:11:17;26.17;;;10.73;;
21168;SDS011;10742;51.816;8.662;2023-01-23T18:21:35;27.80;;;10.73;;
21168;SDS011;10742;51.816;8.662;2023-01-23T18:24:57;26.20;;;10.57;;
21168;SDS011;10742;51.816;8.662;2023-01-23T18:28:18;27.63;;;11.03;;
21168;SDS011;10742;51.816;8.662;2023-01-23T18:31:45;24.90;;;9.73;;
21168;SDS011;10742;51.816;8.662;2023-01-23T18:46:28;29.03;;;11.77;;
21168;SDS011;10742;51.816;8.662;2023-01-23T18:49:49;26.90;;;10.80;;
21168;SDS011;10742;51.816;8.662;2023-01-23T18:53:16;28.23;;;10.80;;
21168;SDS011;10742;51.816;8.662;2023-01-23T19:00:50;28.67;;;10.43;;
21168;SDS011;10742;51.816;8.662;2023-01-23T19:04:23;28.23;;;11.83;;
21168;SDS011;10742;51.816;8.662;2023-01-23T19:07:51;27.63;;;11.43;;
21168;SDS011;10742;51.816;8.662;2023-01-23T19:22:01;28.93;;;11.23;;
21168;SDS011;10742;51.816;8.662;2023-01-23T19:25:28;26.97;;;9.87;;
21168;SDS011;10742;51.816;8.662;2023-01-23T19:28:49;27.07;;;10.50;;
21168;SDS011;10742;51.816;8.662;2023-01-23T19:32:11;28.53;;;10.77;;
21168;SDS011;10742;51.816;8.662;2023-01-23T19:35:33;29.17;;;11.63;;
21168;SDS011;10742;51.816;8.662;2023-01-23T19:38:54;29.97;;;10.90;;
21168;SDS011;10742;51.816;8.662;2023-01-23T19:42:22;25.10;;;9.87;;
21168;SDS011;10742;51.816;8.662;2023-01-23T19:45:44;27.77;;;10.33;;
21168;SDS011;10742;51.816;8.662;2023-01-23T19:49:06;27.47;;;11.17;;
21168;SDS011;10742;51.816;8.662;2023-01-23T19:52:28;25.03;;;9.80;;
21168;SDS011;10742;51.816;8.662;2023-01-23T19:55:49;24.13;;;9.70;;
21168;SDS011;10742;51.816;8.662;2023-01-23T19:59:10;23.10;;;9.47;;
21168;SDS011;10742;51.816;8.662;2023-01-23T20:02:32;24.13;;;9.33;;
21168;SDS011;10742;51.816;8.662;2023-01-23T20:05:53;25.53;;;9.80;;
21168;SDS011;10742;51.816;8.662;2023-01-23T20:09:15;23.60;;;9.73;;
21168;SDS011;10742;51.816;8.662;2023-01-23T20:12:47;25.27;;;9.37;;
21168;SDS011;10742;51.816;8.662;2023-01-23T20:16:15;23.77;;;8.97;;
21168;SDS011;10742;51.816;8.662;2023-01-23T20:19:39;25.13;;;9.63;;
21168;SDS011;10742;51.816;8.662;2023-01-23T20:23:01;23.03;;;8.80;;
21168;SDS011;10742;51.816;8.662;2023-01-23T20:26:22;24.03;;;8.93;;
21168;SDS011;10742;51.816;8.662;2023-01-23T20:29:44;23.50;;;8.27;;
21168;SDS011;10742;51.816;8.662;2023-01-23T20:33:05;21.80;;;8.03;;
21168;SDS011;10742;51.816;8.662;2023-01-23T20:36:27;21.43;;;8.37;;
21168;SDS011;10742;51.816;8.662;2023-01-23T20:39:48;21.30;;;8.60;;
21168;SDS011;10742;51.816;8.662;2023-01-23T20:43:10;27.17;;;10.50;;
21168;SDS011;10742;51.816;8.662;2023-01-23T20:46:31;25.80;;;10.03;;
21168;SDS011;10742;51.816;8.662;2023-01-23T20:49:53;25.13;;;9.27;;
21168;SDS011;10742;51.816;8.662;2023-01-23T20:53:14;25.50;;;9.33;;
21168;SDS011;10742;51.816;8.662;2023-01-23T20:57:02;24.77;;;9.53;;
21168;SDS011;10742;51.816;8.662;2023-01-23T21:00:23;21.37;;;8.13;;
21168;SDS011;10742;51.816;8.662;2023-01-23T21:03:45;20.43;;;8.17;;
21168;SDS011;10742;51.816;8.662;2023-01-23T21:07:07;21.13;;;8.77;;
21168;SDS011;10742;51.816;8.662;2023-01-23T21:10:29;24.80;;;9.60;;
21168;SDS011;10742;51.816;8.662;2023-01-23T21:13:50;22.83;;;9.67;;
21168;SDS011;10742;51.816;8.662;2023-01-23T21:17:13;24.57;;;9.23;;
21168;SDS011;10742;51.816;8.662;2023-01-23T21:20:34;23.43;;;9.57;;
21168;SDS011;10742;51.816;8.662;2023-01-23T21:23:57;27.57;;;10.50;;
21168;SDS011;10742;51.816;8.662;2023-01-23T21:27:18;28.93;;;11.00;;
21168;SDS011;10742;51.816;8.662;2023-01-23T21:30:42;22.27;;;8.60;;
21168;SDS011;10742;51.816;8.662;2023-01-23T21:34:06;22.00;;;8.47;;
21168;SDS011;10742;51.816;8.662;2023-01-23T21:37:28;24.70;;;9.27;;
21168;SDS011;10742;51.816;8.662;2023-01-23T21:40:50;22.87;;;9.13;;
21168;SDS011;10742;51.816;8.662;2023-01-23T21:44:13;20.27;;;8.30;;
21168;SDS011;10742;51.816;8.662;2023-01-23T21:47:34;20.60;;;8.13;;
21168;SDS011;10742;51.816;8.662;2023-01-23T21:51:09;18.67;;;7.33;;
21168;SDS011;10742;51.816;8.662;2023-01-23T21:54:32;20.87;;;7.70;;
21168;SDS011;10742;51.816;8.662;2023-01-23T21:57:53;17.40;;;7.33;;
21168;SDS011;10742;51.816;8.662;2023-01-23T22:01:18;22.20;;;8.20;;
21168;SDS011;10742;51.816;8.662;2023-01-23T22:04:55;21.60;;;8.10;;
21168;SDS011;10742;51.816;8.662;2023-01-23T22:08:17;20.23;;;7.57;;
21168;SDS011;10742;51.816;8.662;2023-01-23T22:11:38;17.40;;;7.00;;
21168;SDS011;10742;51.816;8.662;2023-01-23T22:14:59;16.43;;;6.13;;
21168;SDS011;10742;51.816;8.662;2023-01-23T22:18:20;15.10;;;5.90;;
21168;SDS011;10742;51.816;8.662;2023-01-23T22:21:41;14.33;;;5.90;;
21168;SDS011;10742;51.816;8.662;2023-01-23T22:25:04;14.40;;;5.63;;
21168;SDS011;10742;51.816;8.662;2023-01-23T22:28:26;12.30;;;5.13;;
21168;SDS011;10742;51.816;8.662;2023-01-23T22:31:47;11.63;;;4.60;;
21168;SDS011;10742;51.816;8.662;2023-01-23T22:35:09;10.10;;;4.47;;
21168;SDS011;10742;51.816;8.662;2023-01-23T22:38:30;13.97;;;5.57;;
21168;SDS011;10742;51.816;8.662;2023-01-23T22:41:52;14.93;;;5.30;;
21168;SDS011;10742;51.816;8.662;2023-01-23T22:45:13;12.07;;;4.77;;
21168;SDS011;10742;51.816;8.662;2023-01-23T22:48:35;13.67;;;4.80;;
21168;SDS011;10742;51.816;8.662;2023-01-23T22:51:58;12.53;;;5.13;;
21168;SDS011;10742;51.816;8.662;2023-01-23T22:55:19;12.70;;;5.10;;